createdAt,value
2023-06-02T00:06:24.531Z,101101.88
2023-06-02T00:09:00.852Z,101098.59
2023-06-02T00:11:46.956Z,101096.44
2023-06-02T00:14:21.509Z,101090.44
2023-06-02T00:16:53.356Z,101087.75
2023-06-02T00:19:25.846Z,101087.91
2023-06-02T00:21:55.911Z,101081.09
2023-06-02T00:24:26.867Z,101085.16
2023-06-02T00:26:56.989Z,101089.13
2023-06-02T00:29:38.003Z,101085.81
2023-06-02T00:33:01.304Z,101087.84
2023-06-02T00:35:27.041Z,101079.72
2023-06-02T00:38:09.596Z,101080.88
2023-06-02T00:40:39.415Z,101074.91
2023-06-02T00:43:09.216Z,101071.97
2023-06-02T00:45:39.731Z,101065.16
2023-06-02T00:49:26.254Z,101070.53
2023-06-02T00:51:38.017Z,101073.53
2023-06-02T00:54:59.427Z,101078.59
2023-06-02T00:57:46.389Z,101084.81
2023-06-02T01:00:22.813Z,101074.50
2023-06-02T01:02:53.375Z,101078.81
2023-06-02T01:14:24.490Z,101064.91
2023-06-02T01:17:23.230Z,101072.22
2023-06-02T01:19:58.468Z,101067.47
2023-06-02T01:22:32.028Z,101064.75
2023-06-02T01:25:05.569Z,101071.72
2023-06-02T01:27:35.795Z,101071.72
2023-06-02T01:30:06.167Z,101064.13
2023-06-02T01:32:43.845Z,101073.16
2023-06-02T01:35:15.658Z,101072.38
2023-06-02T01:37:56.450Z,101065.84
2023-06-02T01:41:41.844Z,101067.72
2023-06-02T02:16:22.292Z,101074.44
2023-06-02T02:19:46.162Z,101077.47
2023-06-02T02:25:52.729Z,101072.94
2023-06-02T02:28:26.970Z,101071.41
2023-06-02T02:47:11.530Z,101076.78
2023-06-02T02:54:23.595Z,101083.19
2023-06-02T02:56:56.992Z,101083.19
2023-06-02T02:59:36.717Z,101075.41
2023-06-02T03:02:11.498Z,101079.69
2023-06-02T03:04:43.675Z,101089.78
2023-06-02T03:07:14.202Z,101087.31
2023-06-02T03:09:45.460Z,101092.91
2023-06-02T03:12:15.657Z,101087.78
2023-06-02T03:14:49.433Z,101090.69
2023-06-02T03:17:24.779Z,101101.25
2023-06-02T03:19:58.542Z,101106.88
2023-06-02T03:22:32.935Z,101107.69
2023-06-02T03:25:13.505Z,101101.84
2023-06-02T03:28:02.615Z,101102.88
2023-06-02T03:30:36.065Z,101107.09
2023-06-02T03:45:40.299Z,101108.38
2023-06-02T03:56:20.406Z,101117.91
2023-06-02T03:57:07.870Z,101114.88
2023-06-02T03:59:03.464Z,101115.56
2023-06-02T04:07:59.634Z,101126.06
2023-06-02T04:18:28.686Z,101132.78
2023-06-02T04:21:02.441Z,101138.56
2023-06-02T04:23:37.770Z,101152.78
2023-06-02T04:26:11.290Z,101150.19
2023-06-02T04:28:43.231Z,101142.38
2023-06-02T04:31:18.390Z,101145.59
2023-06-02T04:33:51.226Z,101144.25
2023-06-02T04:36:24.814Z,101153.28
2023-06-02T04:38:58.259Z,101163.81
2023-06-02T04:41:34.039Z,101170.69
2023-06-02T04:44:04.384Z,101173.53
2023-06-02T04:46:36.619Z,101180.09
2023-06-02T04:49:11.017Z,101180.25
2023-06-02T04:51:42.044Z,101176.19
2023-06-02T04:54:16.998Z,101181.63
2023-06-02T04:56:54.501Z,101187.75
2023-06-02T04:59:25.477Z,101188.56
2023-06-02T05:02:01.006Z,101182.16
2023-06-02T05:04:31.647Z,101190.69
2023-06-02T05:07:01.625Z,101189.56
2023-06-02T05:09:34.034Z,101194.50
2023-06-02T05:12:13.426Z,101203.31
2023-06-02T05:14:52.880Z,101198.59
2023-06-02T05:17:25.729Z,101206.44
2023-06-02T05:20:01.045Z,101212.94
2023-06-02T05:22:32.110Z,101214.94
2023-06-02T05:25:11.357Z,101213.75
2023-06-02T05:27:43.814Z,101224.97
2023-06-02T05:30:17.132Z,101222.97
2023-06-02T05:32:48.861Z,101223.41
2023-06-02T05:35:21.008Z,101227.41
2023-06-02T05:37:53.351Z,101237.75
2023-06-02T05:40:23.871Z,101233.75
2023-06-02T05:42:59.547Z,101232.56
2023-06-02T05:45:31.542Z,101233.75
2023-06-02T05:48:04.425Z,101234.94
2023-06-02T05:50:36.886Z,101236.94
2023-06-02T05:53:07.277Z,101239.34
2023-06-02T05:55:42.794Z,101240.94
2023-06-02T05:58:16.471Z,101247.72
2023-06-02T06:00:46.823Z,101243.31
2023-06-02T06:03:18.088Z,101238.13
2023-06-02T06:05:49.251Z,101238.13
2023-06-02T06:08:19.256Z,101247.69
2023-06-02T06:10:49.284Z,101240.94
2023-06-02T06:13:21.426Z,101234.53
2023-06-02T06:15:52.599Z,101236.81
2023-06-02T06:18:22.789Z,101250.03
2023-06-02T06:20:53.411Z,101252.03
2023-06-02T06:23:27.524Z,101244.78
2023-06-02T06:25:57.525Z,101246.41
2023-06-02T06:28:30.115Z,101247.16
2023-06-02T06:31:02.504Z,101254.72
2023-06-02T06:33:32.729Z,101251.53
2023-06-02T06:36:08.759Z,101251.84
2023-06-02T06:38:41.650Z,101252.25
2023-06-02T06:41:11.914Z,101235.97
2023-06-02T06:43:42.934Z,101243.84
2023-06-02T06:46:17.793Z,101250.16
2023-06-02T06:48:53.415Z,101245.00
2023-06-02T06:51:24.024Z,101239.69
2023-06-02T06:53:54.796Z,101244.44
2023-06-02T06:56:28.195Z,101244.97
2023-06-02T06:58:57.996Z,101248.13
2023-06-02T07:01:27.896Z,101243.53
2023-06-02T07:04:00.682Z,101245.25
2023-06-02T07:06:30.811Z,101242.09
2023-06-02T07:09:00.796Z,101245.69
2023-06-02T07:11:30.674Z,101236.44
2023-06-02T07:14:14.831Z,101242.47
2023-06-02T07:16:50.320Z,101242.91
2023-06-02T07:19:20.470Z,101245.25
2023-06-02T07:21:50.815Z,101236.41
2023-06-02T07:24:22.448Z,101234.78
2023-06-02T07:26:52.852Z,101242.28
2023-06-02T07:29:26.127Z,101245.81
2023-06-02T07:31:56.004Z,101247.28
2023-06-02T07:34:26.197Z,101245.97
2023-06-02T07:36:56.755Z,101251.19
2023-06-02T07:39:26.659Z,101250.84
2023-06-02T07:41:56.629Z,101260.47
2023-06-02T07:44:26.445Z,101256.03
2023-06-02T07:46:55.960Z,101251.31
2023-06-02T07:49:25.727Z,101252.84
2023-06-02T07:51:55.533Z,101245.69
2023-06-02T07:54:25.357Z,101246.72
2023-06-02T07:56:55.431Z,101247.19
2023-06-02T07:59:25.386Z,101244.81
2023-06-02T08:01:57.395Z,101246.34
2023-06-02T08:04:29.934Z,101243.13
2023-06-02T08:07:02.844Z,101255.00
2023-06-02T08:09:32.998Z,101261.00
2023-06-02T08:12:03.678Z,101258.94
2023-06-02T08:14:34.469Z,101263.03
2023-06-02T08:17:04.212Z,101263.06
2023-06-02T08:19:34.223Z,101264.44
2023-06-02T08:22:05.894Z,101270.72
2023-06-02T08:24:38.934Z,101269.81
2023-06-02T08:27:11.433Z,101277.38
2023-06-02T08:29:41.190Z,101269.84
2023-06-02T08:32:12.107Z,101269.03
2023-06-02T08:34:43.651Z,101261.88
2023-06-02T08:37:19.890Z,101261.91
2023-06-02T08:39:51.948Z,101263.56
2023-06-02T08:42:24.650Z,101259.47
2023-06-02T08:44:57.004Z,101266.84
2023-06-02T08:47:32.838Z,101266.16
2023-06-02T08:50:05.000Z,101268.19
2023-06-02T08:52:37.644Z,101267.44
2023-06-02T08:55:07.836Z,101269.72
2023-06-02T08:57:38.816Z,101266.56
2023-06-02T09:00:09.561Z,101271.81
2023-06-02T09:02:39.256Z,101267.44
2023-06-02T09:05:11.425Z,101276.88
2023-06-02T09:07:41.215Z,101274.41
2023-06-02T09:10:11.047Z,101268.03
2023-06-02T09:12:50.572Z,101280.75
2023-06-02T09:15:20.510Z,101283.94
2023-06-02T09:17:50.095Z,101289.50
2023-06-02T09:20:20.252Z,101287.88
2023-06-02T09:22:58.485Z,101300.56
2023-06-02T09:25:30.977Z,101298.09
2023-06-02T09:28:02.084Z,101293.31
2023-06-02T09:30:31.907Z,101289.34
2023-06-02T09:33:07.681Z,101291.59
2023-06-02T09:35:46.577Z,101285.94
2023-06-02T09:38:19.870Z,101279.88
2023-06-02T09:40:49.547Z,101277.00
2023-06-02T09:43:32.290Z,101281.72
2023-06-02T09:46:06.059Z,101274.47
2023-06-02T09:48:37.213Z,101286.66
2023-06-02T09:51:26.196Z,101284.09
2023-06-02T09:53:58.015Z,101291.22
2023-06-02T09:56:29.360Z,101285.88
2023-06-02T09:58:59.332Z,101292.44
2023-06-02T10:01:29.289Z,101297.00
2023-06-02T10:03:59.031Z,101288.47
2023-06-02T10:06:44.064Z,101298.06
2023-06-02T10:09:56.684Z,101301.16
2023-06-02T10:13:02.861Z,101303.78
2023-06-02T10:15:38.854Z,101288.25
2023-06-02T10:18:25.363Z,101294.03
2023-06-02T10:21:13.705Z,101289.88
2023-06-02T10:24:17.579Z,101294.66
2023-06-02T10:27:02.960Z,101291.13
2023-06-02T10:29:36.123Z,101292.66
2023-06-02T10:32:23.245Z,101301.31
2023-06-02T10:34:56.907Z,101306.75
2023-06-02T10:37:30.089Z,101299.66
2023-06-02T10:40:05.393Z,101308.63
2023-06-02T10:42:35.184Z,101309.47
2023-06-02T10:45:20.176Z,101313.44
2023-06-02T10:47:50.092Z,101309.59
2023-06-02T10:50:23.841Z,101310.41
2023-06-02T10:53:09.934Z,101309.22
2023-06-02T10:55:40.933Z,101307.94
2023-06-02T10:58:14.633Z,101307.13
2023-06-02T11:00:45.830Z,101319.06
2023-06-02T11:03:23.312Z,101321.75
2023-06-02T11:05:54.204Z,101324.00
2023-06-02T11:08:24.006Z,101324.06
2023-06-02T11:11:02.561Z,101323.16
2023-06-02T11:13:32.431Z,101318.44
2023-06-02T11:16:17.026Z,101325.88
2023-06-02T11:18:46.807Z,101323.41
2023-06-02T11:21:22.761Z,101328.47
2023-06-02T11:23:54.612Z,101331.19
2023-06-02T11:26:25.968Z,101338.44
2023-06-02T11:28:55.976Z,101341.53
2023-06-02T11:31:25.746Z,101346.88
2023-06-02T11:33:56.938Z,101343.47
2023-06-02T11:36:31.558Z,101344.41
2023-06-02T11:39:12.211Z,101335.72
2023-06-02T11:41:41.892Z,101346.63
2023-06-02T11:44:15.754Z,101345.34
2023-06-02T11:46:47.759Z,101347.72
2023-06-02T11:49:17.852Z,101344.41
2023-06-02T11:51:47.672Z,101344.94
2023-06-02T11:54:17.521Z,101353.44
2023-06-02T11:56:47.501Z,101353.72
2023-06-02T11:59:28.373Z,101357.72
2023-06-02T12:01:58.299Z,101351.53
2023-06-02T12:04:28.360Z,101358.03
2023-06-02T12:06:57.979Z,101361.81
2023-06-02T12:09:31.759Z,101360.78
2023-06-02T12:12:09.928Z,101364.63
2023-06-02T12:14:40.526Z,101365.22
2023-06-02T12:17:10.211Z,101377.34
2023-06-02T12:19:40.210Z,101380.25
2023-06-02T12:22:19.048Z,101382.16
2023-06-02T12:24:49.441Z,101387.69
2023-06-02T12:27:26.296Z,101387.41
2023-06-02T12:29:56.519Z,101395.34
2023-06-02T12:32:29.633Z,101400.38
2023-06-02T12:34:59.293Z,101400.66
2023-06-02T12:37:29.616Z,101410.72
2023-06-02T12:40:00.207Z,101407.94
2023-06-02T12:42:30.605Z,101405.75
2023-06-02T12:45:00.134Z,101405.31
2023-06-02T12:47:30.605Z,101404.59
2023-06-02T12:50:00.335Z,101401.75
2023-06-02T12:52:29.980Z,101401.81
2023-06-02T12:55:00.224Z,101404.00
2023-06-02T12:57:30.892Z,101408.81
2023-06-02T13:00:03.024Z,101407.88
2023-06-02T13:02:32.939Z,101404.72
2023-06-02T13:05:02.422Z,101397.41
2023-06-02T13:07:32.964Z,101394.78
2023-06-02T13:10:02.751Z,101393.47
2023-06-02T13:12:32.312Z,101399.19
2023-06-02T13:15:19.059Z,101398.22
2023-06-02T13:17:49.444Z,101401.41
2023-06-02T13:20:19.704Z,101400.59
2023-06-02T13:22:50.367Z,101402.38
2023-06-02T13:25:20.207Z,101403.59
2023-06-02T13:27:50.062Z,101400.53
2023-06-02T13:30:21.101Z,101402.16
2023-06-02T13:32:50.744Z,101405.56
2023-06-02T13:35:20.349Z,101414.38
2023-06-02T13:37:49.891Z,101405.91
2023-06-02T13:40:26.192Z,101414.25
2023-06-02T13:42:59.843Z,101407.91
2023-06-02T13:45:33.148Z,101415.91
2023-06-02T13:48:04.658Z,101417.06
2023-06-02T13:50:37.474Z,101424.31
2023-06-02T13:53:09.992Z,101425.69
2023-06-02T13:55:39.810Z,101439.34
2023-06-02T13:58:09.607Z,101432.91
2023-06-02T14:00:42.459Z,101432.09
2023-06-02T14:03:12.412Z,101435.25
2023-06-02T14:05:44.852Z,101432.91
2023-06-02T14:08:17.133Z,101434.50
2023-06-02T14:10:46.986Z,101434.50
2023-06-02T14:13:16.929Z,101433.91
2023-06-02T14:15:50.078Z,101441.50
2023-06-02T14:18:40.029Z,101434.19
2023-06-02T14:21:09.790Z,101431.53
2023-06-02T14:23:50.573Z,101432.13
2023-06-02T14:34:24.454Z,101434.69
2023-06-02T14:37:09.332Z,101437.97
2023-06-02T14:39:39.726Z,101441.53
2023-06-02T14:46:06.643Z,101441.97
2023-06-02T14:48:39.892Z,101433.91
2023-06-02T14:51:09.554Z,101431.75
2023-06-02T14:53:39.766Z,101430.25
2023-06-02T14:56:10.557Z,101430.47
2023-06-02T14:58:49.412Z,101444.13
2023-06-02T15:01:26.723Z,101444.19
2023-06-02T15:03:56.685Z,101433.91
2023-06-02T15:06:29.937Z,101442.72
2023-06-02T15:09:04.687Z,101439.53
2023-06-02T15:11:43.823Z,101438.72
2023-06-02T15:14:13.713Z,101436.44
2023-06-02T15:16:43.786Z,101449.25
2023-06-02T15:19:13.861Z,101439.34
2023-06-02T15:21:53.072Z,101435.13
2023-06-02T15:24:26.212Z,101443.09
2023-06-02T15:27:02.217Z,101443.09
2023-06-02T15:29:34.688Z,101443.56
2023-06-02T15:32:07.333Z,101442.03
2023-06-02T15:34:37.647Z,101440.09
2023-06-02T15:37:08.041Z,101436.50
2023-06-02T15:39:38.317Z,101436.50
2023-06-02T15:42:09.519Z,101439.78
2023-06-02T15:44:39.519Z,101445.47
2023-06-02T15:47:09.416Z,101446.34
2023-06-02T15:49:39.139Z,101439.22
2023-06-02T15:52:11.485Z,101440.09
2023-06-02T15:54:45.557Z,101444.16
2023-06-02T15:57:26.555Z,101435.81
2023-06-02T15:59:57.225Z,101433.91
2023-06-02T16:02:27.129Z,101437.06
2023-06-02T16:04:57.265Z,101444.63
2023-06-02T16:07:30.246Z,101439.88
2023-06-02T16:09:59.981Z,101438.09
2023-06-02T16:12:36.120Z,101440.22
2023-06-02T16:15:09.420Z,101428.75
2023-06-02T16:17:41.811Z,101435.53
2023-06-02T16:20:31.042Z,101437.53
2023-06-02T16:23:01.043Z,101427.22
2023-06-02T16:25:34.225Z,101433.16
2023-06-02T16:28:07.673Z,101425.72
2023-06-02T16:30:40.212Z,101428.97
2023-06-02T16:33:10.046Z,101431.38
2023-06-02T16:35:40.249Z,101431.38
2023-06-02T16:38:15.473Z,101428.25
2023-06-02T16:40:49.984Z,101433.84
2023-06-02T16:43:28.734Z,101437.06
2023-06-02T16:46:09.623Z,101433.09
2023-06-02T16:48:45.187Z,101421.97
2023-06-02T16:51:34.050Z,101424.34
2023-06-02T16:54:10.339Z,101423.56
2023-06-02T16:56:43.257Z,101422.38
2023-06-02T16:59:13.327Z,101414.84
2023-06-02T17:01:43.965Z,101417.22
2023-06-02T17:05:18.720Z,101410.47
2023-06-02T17:08:17.735Z,101423.63
2023-06-02T17:10:57.844Z,101413.25
2023-06-02T17:13:28.650Z,101422.41
2023-06-02T17:16:08.133Z,101421.19
2023-06-02T17:18:45.180Z,101416.38
2023-06-02T17:21:30.089Z,101413.16
2023-06-02T17:24:03.043Z,101408.38
2023-06-02T17:26:58.834Z,101422.72
2023-06-02T17:29:35.895Z,101415.13
2023-06-02T17:32:18.596Z,101414.69
2023-06-02T17:34:53.739Z,101412.28
2023-06-02T17:37:44.942Z,101409.44
2023-06-02T17:43:34.032Z,101410.28
2023-06-02T17:46:23.664Z,101412.22
2023-06-02T17:49:21.482Z,101405.00
2023-06-02T17:52:13.875Z,101400.50
2023-06-02T17:54:54.019Z,101401.09
2023-06-02T17:57:31.131Z,101400.84
2023-06-02T18:04:46.235Z,101400.91
2023-06-02T18:07:31.090Z,101398.03
2023-06-02T18:10:06.396Z,101390.78
2023-06-02T18:15:33.485Z,101387.78
2023-06-02T18:18:40.377Z,101391.66
2023-06-02T19:51:56.670Z,101365.34
2023-06-02T20:00:00.543Z,101361.13
2023-06-02T20:03:02.141Z,101353.72
2023-06-02T20:05:32.087Z,101350.91
2023-06-02T20:08:20.640Z,101354.41
2023-06-02T20:13:53.336Z,101353.00
2023-06-02T20:16:26.311Z,101344.06
2023-06-02T20:33:00.784Z,101344.00
2023-06-02T20:35:16.174Z,101338.94
2023-06-02T20:35:51.501Z,101343.72
2023-06-02T20:39:08.579Z,101343.44
2023-06-02T20:41:38.732Z,101338.16
2023-06-02T20:44:08.503Z,101342.97
2023-06-02T20:46:38.326Z,101333.31
2023-06-02T20:49:07.820Z,101343.00
2023-06-02T20:51:58.162Z,101334.88
2023-06-02T20:54:28.948Z,101334.00
2023-06-02T20:57:02.703Z,101331.41
2023-06-02T20:59:35.216Z,101332.34
2023-06-02T21:02:05.362Z,101329.84
2023-06-02T21:04:43.204Z,101330.78
2023-06-02T22:30:10.075Z,101292.78
2023-06-02T23:21:54.365Z,101263.13
2023-06-02T23:54:05.872Z,101250.31
